sensor_id;sensor_type;location;lat;lon;timestamp;P1;durP1;ratioP1;P2;durP2;ratioP2
74926;SDS011;63488;48.092;-1.640;2023-08-21T00:02:20;4.72;;;1.17;;
74926;SDS011;63488;48.092;-1.640;2023-08-21T00:04:45;4.43;;;1.02;;
74926;SDS011;63488;48.092;-1.640;2023-08-21T00:07:10;6.30;;;1.05;;
74926;SDS011;63488;48.092;-1.640;2023-08-21T00:09:36;5.03;;;1.05;;
74926;SDS011;63488;48.092;-1.640;2023-08-21T00:12:02;3.25;;;0.88;;
74926;SDS011;63488;48.092;-1.640;2023-08-21T00:14:27;7.20;;;1.38;;
74926;SDS011;63488;48.092;-1.640;2023-08-21T00:16:53;4.75;;;0.90;;
74926;SDS011;63488;48.092;-1.640;2023-08-21T00:19:18;3.17;;;0.90;;
74926;SDS011;63488;48.092;-1.640;2023-08-21T00:21:43;3.45;;;0.57;;
74926;SDS011;63488;48.092;-1.640;2023-08-21T00:24:09;3.00;;;0.80;;
74926;SDS011;63488;48.092;-1.640;2023-08-21T00:26:34;4.03;;;0.90;;
74926;SDS011;63488;48.092;-1.640;2023-08-21T00:28:59;4.65;;;0.90;;
74926;SDS011;63488;48.092;-1.640;2023-08-21T00:31:25;4.70;;;1.20;;
74926;SDS011;63488;48.092;-1.640;2023-08-21T00:33:50;3.13;;;1.10;;
74926;SDS011;63488;48.092;-1.640;2023-08-21T00:36:15;4.82;;;0.82;;
74926;SDS011;63488;48.092;-1.640;2023-08-21T00:38:41;5.22;;;0.88;;
74926;SDS011;63488;48.092;-1.640;2023-08-21T00:41:06;7.40;;;0.95;;
74926;SDS011;63488;48.092;-1.640;2023-08-21T00:43:32;4.80;;;1.00;;
74926;SDS011;63488;48.092;-1.640;2023-08-21T00:45:57;4.32;;;0.88;;
74926;SDS011;63488;48.092;-1.640;2023-08-21T00:48:22;5.65;;;1.00;;
74926;SDS011;63488;48.092;-1.640;2023-08-21T00:50:48;5.07;;;1.10;;
74926;SDS011;63488;48.092;-1.640;2023-08-21T00:53:13;3.55;;;0.80;;
74926;SDS011;63488;48.092;-1.640;2023-08-21T00:55:39;5.13;;;0.80;;
74926;SDS011;63488;48.092;-1.640;2023-08-21T00:58:05;7.30;;;1.20;;
74926;SDS011;63488;48.092;-1.640;2023-08-21T01:00:30;5.68;;;0.90;;
74926;SDS011;63488;48.092;-1.640;2023-08-21T01:02:56;4.70;;;1.08;;
74926;SDS011;63488;48.092;-1.640;2023-08-21T01:05:22;6.43;;;1.10;;
74926;SDS011;63488;48.092;-1.640;2023-08-21T01:07:59;3.65;;;0.75;;
74926;SDS011;63488;48.092;-1.640;2023-08-21T01:10:30;4.30;;;0.80;;
74926;SDS011;63488;48.092;-1.640;2023-08-21T01:15:42;4.40;;;0.80;;
74926;SDS011;63488;48.092;-1.640;2023-08-21T01:18:09;6.55;;;1.00;;
74926;SDS011;63488;48.092;-1.640;2023-08-21T01:20:34;7.97;;;0.93;;
74926;SDS011;63488;48.092;-1.640;2023-08-21T01:23:03;4.38;;;0.75;;
74926;SDS011;63488;48.092;-1.640;2023-08-21T01:25:29;4.23;;;0.77;;
74926;SDS011;63488;48.092;-1.640;2023-08-21T01:27:54;4.18;;;0.70;;
74926;SDS011;63488;48.092;-1.640;2023-08-21T01:30:20;3.55;;;0.70;;
74926;SDS011;63488;48.092;-1.640;2023-08-21T01:32:48;4.60;;;0.93;;
74926;SDS011;63488;48.092;-1.640;2023-08-21T01:35:15;3.67;;;1.10;;
74926;SDS011;63488;48.092;-1.640;2023-08-21T01:37:41;3.08;;;0.80;;
74926;SDS011;63488;48.092;-1.640;2023-08-21T01:40:07;3.15;;;0.77;;
74926;SDS011;63488;48.092;-1.640;2023-08-21T01:42:33;5.07;;;0.93;;
74926;SDS011;63488;48.092;-1.640;2023-08-21T01:44:58;2.30;;;0.65;;
74926;SDS011;63488;48.092;-1.640;2023-08-21T01:47:23;5.78;;;0.88;;
74926;SDS011;63488;48.092;-1.640;2023-08-21T01:49:49;3.75;;;0.90;;
74926;SDS011;63488;48.092;-1.640;2023-08-21T01:52:17;4.88;;;0.85;;
74926;SDS011;63488;48.092;-1.640;2023-08-21T01:54:42;6.38;;;1.10;;
74926;SDS011;63488;48.092;-1.640;2023-08-21T01:57:08;5.13;;;1.00;;
74926;SDS011;63488;48.092;-1.640;2023-08-21T01:59:33;3.13;;;0.90;;
74926;SDS011;63488;48.092;-1.640;2023-08-21T02:01:58;4.93;;;1.13;;
74926;SDS011;63488;48.092;-1.640;2023-08-21T02:04:24;5.75;;;1.00;;
74926;SDS011;63488;48.092;-1.640;2023-08-21T02:06:49;5.90;;;1.13;;
74926;SDS011;63488;48.092;-1.640;2023-08-21T02:09:14;6.15;;;0.98;;
74926;SDS011;63488;48.092;-1.640;2023-08-21T02:11:40;4.80;;;1.08;;
74926;SDS011;63488;48.092;-1.640;2023-08-21T02:14:05;4.88;;;0.75;;
74926;SDS011;63488;48.092;-1.640;2023-08-21T02:16:30;5.72;;;1.20;;
74926;SDS011;63488;48.092;-1.640;2023-08-21T02:18:56;4.43;;;1.13;;
74926;SDS011;63488;48.092;-1.640;2023-08-21T02:21:22;3.90;;;1.27;;
74926;SDS011;63488;48.092;-1.640;2023-08-21T02:23:47;5.72;;;1.20;;
74926;SDS011;63488;48.092;-1.640;2023-08-21T02:26:13;7.13;;;1.33;;
74926;SDS011;63488;48.092;-1.640;2023-08-21T02:28:38;5.10;;;1.33;;
74926;SDS011;63488;48.092;-1.640;2023-08-21T02:31:03;6.45;;;1.30;;
74926;SDS011;63488;48.092;-1.640;2023-08-21T02:33:30;5.40;;;1.10;;
74926;SDS011;63488;48.092;-1.640;2023-08-21T02:35:55;6.50;;;0.80;;
74926;SDS011;63488;48.092;-1.640;2023-08-21T02:38:20;8.35;;;1.42;;
74926;SDS011;63488;48.092;-1.640;2023-08-21T02:40:46;9.60;;;1.20;;
74926;SDS011;63488;48.092;-1.640;2023-08-21T02:43:12;4.78;;;1.10;;
74926;SDS011;63488;48.092;-1.640;2023-08-21T02:45:38;5.18;;;1.20;;
74926;SDS011;63488;48.092;-1.640;2023-08-21T02:48:03;4.85;;;1.27;;
74926;SDS011;63488;48.092;-1.640;2023-08-21T02:50:29;7.13;;;1.92;;
74926;SDS011;63488;48.092;-1.640;2023-08-21T02:52:54;5.55;;;1.35;;
74926;SDS011;63488;48.092;-1.640;2023-08-21T02:55:19;3.83;;;1.02;;
74926;SDS011;63488;48.092;-1.640;2023-08-21T02:57:46;4.75;;;1.40;;
74926;SDS011;63488;48.092;-1.640;2023-08-21T03:00:11;6.25;;;1.13;;
74926;SDS011;63488;48.092;-1.640;2023-08-21T03:02:37;3.80;;;1.13;;
74926;SDS011;63488;48.092;-1.640;2023-08-21T03:05:03;5.40;;;1.25;;
74926;SDS011;63488;48.092;-1.640;2023-08-21T03:07:28;6.95;;;1.48;;
74926;SDS011;63488;48.092;-1.640;2023-08-21T03:09:53;5.20;;;1.25;;
74926;SDS011;63488;48.092;-1.640;2023-08-21T03:12:19;6.75;;;1.50;;
74926;SDS011;63488;48.092;-1.640;2023-08-21T03:14:45;4.95;;;1.10;;
74926;SDS011;63488;48.092;-1.640;2023-08-21T03:17:10;6.78;;;1.35;;
74926;SDS011;63488;48.092;-1.640;2023-08-21T03:19:36;5.15;;;1.10;;
74926;SDS011;63488;48.092;-1.640;2023-08-21T03:22:01;8.00;;;1.65;;
74926;SDS011;63488;48.092;-1.640;2023-08-21T03:24:26;5.05;;;1.08;;
74926;SDS011;63488;48.092;-1.640;2023-08-21T03:26:52;6.13;;;1.42;;
74926;SDS011;63488;48.092;-1.640;2023-08-21T03:29:17;4.50;;;1.40;;
74926;SDS011;63488;48.092;-1.640;2023-08-21T03:31:42;7.35;;;1.55;;
74926;SDS011;63488;48.092;-1.640;2023-08-21T03:34:08;7.00;;;1.70;;
74926;SDS011;63488;48.092;-1.640;2023-08-21T03:36:33;6.00;;;1.50;;
74926;SDS011;63488;48.092;-1.640;2023-08-21T03:38:59;4.35;;;1.50;;
74926;SDS011;63488;48.092;-1.640;2023-08-21T03:41:25;5.57;;;1.50;;
74926;SDS011;63488;48.092;-1.640;2023-08-21T03:43:50;6.20;;;1.60;;
74926;SDS011;63488;48.092;-1.640;2023-08-21T03:46:16;4.68;;;1.58;;
74926;SDS011;63488;48.092;-1.640;2023-08-21T03:48:41;6.88;;;2.13;;
74926;SDS011;63488;48.092;-1.640;2023-08-21T03:51:06;6.57;;;1.83;;
74926;SDS011;63488;48.092;-1.640;2023-08-21T03:53:32;5.80;;;2.17;;
74926;SDS011;63488;48.092;-1.640;2023-08-21T03:55:57;5.07;;;1.85;;
74926;SDS011;63488;48.092;-1.640;2023-08-21T03:58:23;6.57;;;1.73;;
74926;SDS011;63488;48.092;-1.640;2023-08-21T04:00:50;4.53;;;1.60;;
74926;SDS011;63488;48.092;-1.640;2023-08-21T04:03:15;6.55;;;2.10;;
74926;SDS011;63488;48.092;-1.640;2023-08-21T04:05:41;4.82;;;1.73;;
74926;SDS011;63488;48.092;-1.640;2023-08-21T04:08:06;3.90;;;1.90;;
74926;SDS011;63488;48.092;-1.640;2023-08-21T04:10:31;4.95;;;1.80;;
74926;SDS011;63488;48.092;-1.640;2023-08-21T04:12:57;5.20;;;1.95;;
74926;SDS011;63488;48.092;-1.640;2023-08-21T04:15:22;4.30;;;1.85;;
74926;SDS011;63488;48.092;-1.640;2023-08-21T04:17:48;3.95;;;1.60;;
74926;SDS011;63488;48.092;-1.640;2023-08-21T04:20:13;2.55;;;1.58;;
74926;SDS011;63488;48.092;-1.640;2023-08-21T04:22:38;2.65;;;1.83;;
74926;SDS011;63488;48.092;-1.640;2023-08-21T04:25:04;3.33;;;1.67;;
74926;SDS011;63488;48.092;-1.640;2023-08-21T04:27:29;2.70;;;1.58;;
74926;SDS011;63488;48.092;-1.640;2023-08-21T04:29:54;4.38;;;1.77;;
74926;SDS011;63488;48.092;-1.640;2023-08-21T04:32:20;3.50;;;1.70;;
74926;SDS011;63488;48.092;-1.640;2023-08-21T04:34:46;3.03;;;1.65;;
74926;SDS011;63488;48.092;-1.640;2023-08-21T04:37:11;2.60;;;1.50;;
74926;SDS011;63488;48.092;-1.640;2023-08-21T04:39:37;2.10;;;1.50;;
74926;SDS011;63488;48.092;-1.640;2023-08-21T04:42:02;3.38;;;1.38;;
74926;SDS011;63488;48.092;-1.640;2023-08-21T04:44:27;2.65;;;1.45;;
74926;SDS011;63488;48.092;-1.640;2023-08-21T04:46:53;3.03;;;1.65;;
74926;SDS011;63488;48.092;-1.640;2023-08-21T04:49:18;2.85;;;1.40;;
74926;SDS011;63488;48.092;-1.640;2023-08-21T04:51:43;3.25;;;1.67;;
74926;SDS011;63488;48.092;-1.640;2023-08-21T04:54:09;2.28;;;1.42;;
74926;SDS011;63488;48.092;-1.640;2023-08-21T04:56:34;4.90;;;1.60;;
74926;SDS011;63488;48.092;-1.640;2023-08-21T04:58:59;2.08;;;1.48;;
74926;SDS011;63488;48.092;-1.640;2023-08-21T05:01:25;4.07;;;1.60;;
74926;SDS011;63488;48.092;-1.640;2023-08-21T05:03:50;2.10;;;1.40;;
74926;SDS011;63488;48.092;-1.640;2023-08-21T05:06:16;2.65;;;1.30;;
74926;SDS011;63488;48.092;-1.640;2023-08-21T05:08:41;1.75;;;1.00;;
74926;SDS011;63488;48.092;-1.640;2023-08-21T05:11:07;2.00;;;1.25;;
74926;SDS011;63488;48.092;-1.640;2023-08-21T05:13:33;1.83;;;1.02;;
74926;SDS011;63488;48.092;-1.640;2023-08-21T05:15:58;2.67;;;1.35;;
74926;SDS011;63488;48.092;-1.640;2023-08-21T05:18:24;1.23;;;1.02;;
74926;SDS011;63488;48.092;-1.640;2023-08-21T05:20:50;1.95;;;0.90;;
74926;SDS011;63488;48.092;-1.640;2023-08-21T05:23:16;1.15;;;1.05;;
74926;SDS011;63488;48.092;-1.640;2023-08-21T05:25:45;2.03;;;1.10;;
74926;SDS011;63488;48.092;-1.640;2023-08-21T05:28:10;2.03;;;1.02;;
74926;SDS011;63488;48.092;-1.640;2023-08-21T05:30:36;2.53;;;1.30;;
74926;SDS011;63488;48.092;-1.640;2023-08-21T05:33:02;1.20;;;1.02;;
74926;SDS011;63488;48.092;-1.640;2023-08-21T05:35:27;1.55;;;0.98;;
74926;SDS011;63488;48.092;-1.640;2023-08-21T05:37:52;1.25;;;1.10;;
74926;SDS011;63488;48.092;-1.640;2023-08-21T05:40:18;0.95;;;0.77;;
74926;SDS011;63488;48.092;-1.640;2023-08-21T05:42:43;6.00;;;1.10;;
74926;SDS011;63488;48.092;-1.640;2023-08-21T05:45:09;3.58;;;1.15;;
74926;SDS011;63488;48.092;-1.640;2023-08-21T05:47:34;1.33;;;1.00;;
74926;SDS011;63488;48.092;-1.640;2023-08-21T05:49:59;1.77;;;0.93;;
74926;SDS011;63488;48.092;-1.640;2023-08-21T05:52:25;2.70;;;0.82;;
74926;SDS011;63488;48.092;-1.640;2023-08-21T05:54:51;3.13;;;1.08;;
74926;SDS011;63488;48.092;-1.640;2023-08-21T05:57:16;1.58;;;1.00;;
74926;SDS011;63488;48.092;-1.640;2023-08-21T05:59:45;2.47;;;1.02;;
74926;SDS011;63488;48.092;-1.640;2023-08-21T06:02:11;1.30;;;1.10;;
74926;SDS011;63488;48.092;-1.640;2023-08-21T06:04:37;2.38;;;1.10;;
74926;SDS011;63488;48.092;-1.640;2023-08-21T06:07:02;2.85;;;1.02;;
74926;SDS011;63488;48.092;-1.640;2023-08-21T06:09:28;2.45;;;1.27;;
74926;SDS011;63488;48.092;-1.640;2023-08-21T06:11:54;0.88;;;0.80;;
74926;SDS011;63488;48.092;-1.640;2023-08-21T06:14:20;2.30;;;1.02;;
74926;SDS011;63488;48.092;-1.640;2023-08-21T06:16:45;3.97;;;1.25;;
74926;SDS011;63488;48.092;-1.640;2023-08-21T06:19:10;2.15;;;1.10;;
74926;SDS011;63488;48.092;-1.640;2023-08-21T06:21:36;2.45;;;1.13;;
74926;SDS011;63488;48.092;-1.640;2023-08-21T06:24:01;2.15;;;1.30;;
74926;SDS011;63488;48.092;-1.640;2023-08-21T06:26:27;1.85;;;1.00;;
74926;SDS011;63488;48.092;-1.640;2023-08-21T06:28:52;3.38;;;1.10;;
74926;SDS011;63488;48.092;-1.640;2023-08-21T06:31:18;2.38;;;1.25;;
74926;SDS011;63488;48.092;-1.640;2023-08-21T06:33:43;3.28;;;1.02;;
74926;SDS011;63488;48.092;-1.640;2023-08-21T06:36:08;3.00;;;1.17;;
74926;SDS011;63488;48.092;-1.640;2023-08-21T06:38:34;2.95;;;1.10;;
74926;SDS011;63488;48.092;-1.640;2023-08-21T06:40:59;2.13;;;1.05;;
74926;SDS011;63488;48.092;-1.640;2023-08-21T06:43:25;2.10;;;1.20;;
74926;SDS011;63488;48.092;-1.640;2023-08-21T06:45:50;1.85;;;1.00;;
74926;SDS011;63488;48.092;-1.640;2023-08-21T06:48:15;1.67;;;0.90;;
74926;SDS011;63488;48.092;-1.640;2023-08-21T06:50:41;3.17;;;1.45;;
74926;SDS011;63488;48.092;-1.640;2023-08-21T06:53:06;3.63;;;1.02;;
74926;SDS011;63488;48.092;-1.640;2023-08-21T06:55:31;3.28;;;1.42;;
74926;SDS011;63488;48.092;-1.640;2023-08-21T06:57:57;5.93;;;1.42;;
74926;SDS011;63488;48.092;-1.640;2023-08-21T07:00:22;2.13;;;1.30;;
74926;SDS011;63488;48.092;-1.640;2023-08-21T07:02:48;3.80;;;1.45;;
74926;SDS011;63488;48.092;-1.640;2023-08-21T07:05:13;2.97;;;1.38;;
74926;SDS011;63488;48.092;-1.640;2023-08-21T07:07:39;4.32;;;1.48;;
74926;SDS011;63488;48.092;-1.640;2023-08-21T07:10:04;5.40;;;1.25;;
74926;SDS011;63488;48.092;-1.640;2023-08-21T07:12:29;3.42;;;1.27;;
74926;SDS011;63488;48.092;-1.640;2023-08-21T07:14:55;2.10;;;1.33;;
74926;SDS011;63488;48.092;-1.640;2023-08-21T07:17:21;7.65;;;1.63;;
74926;SDS011;63488;48.092;-1.640;2023-08-21T07:19:46;4.65;;;1.55;;
74926;SDS011;63488;48.092;-1.640;2023-08-21T07:22:14;4.78;;;1.10;;
74926;SDS011;63488;48.092;-1.640;2023-08-21T07:24:44;3.13;;;1.00;;
74926;SDS011;63488;48.092;-1.640;2023-08-21T07:27:09;4.60;;;1.05;;
74926;SDS011;63488;48.092;-1.640;2023-08-21T07:29:35;5.85;;;1.25;;
74926;SDS011;63488;48.092;-1.640;2023-08-21T07:32:01;3.47;;;0.82;;
74926;SDS011;63488;48.092;-1.640;2023-08-21T07:34:26;4.35;;;1.38;;
74926;SDS011;63488;48.092;-1.640;2023-08-21T07:36:51;5.90;;;1.17;;
74926;SDS011;63488;48.092;-1.640;2023-08-21T07:39:17;6.80;;;1.27;;
74926;SDS011;63488;48.092;-1.640;2023-08-21T07:41:42;4.72;;;1.23;;
74926;SDS011;63488;48.092;-1.640;2023-08-21T07:44:14;6.85;;;1.40;;
74926;SDS011;63488;48.092;-1.640;2023-08-21T07:46:39;5.90;;;1.77;;
74926;SDS011;63488;48.092;-1.640;2023-08-21T07:49:04;2.63;;;0.90;;
74926;SDS011;63488;48.092;-1.640;2023-08-21T07:51:33;4.53;;;1.30;;
74926;SDS011;63488;48.092;-1.640;2023-08-21T07:53:58;3.40;;;1.23;;
74926;SDS011;63488;48.092;-1.640;2023-08-21T07:56:27;4.00;;;1.02;;
74926;SDS011;63488;48.092;-1.640;2023-08-21T07:58:53;4.35;;;0.93;;
74926;SDS011;63488;48.092;-1.640;2023-08-21T08:01:18;5.40;;;1.30;;
74926;SDS011;63488;48.092;-1.640;2023-08-21T08:03:46;4.20;;;1.42;;
74926;SDS011;63488;48.092;-1.640;2023-08-21T08:06:11;5.90;;;1.10;;
74926;SDS011;63488;48.092;-1.640;2023-08-21T08:08:36;4.60;;;1.70;;
74926;SDS011;63488;48.092;-1.640;2023-08-21T08:11:02;4.38;;;1.08;;
74926;SDS011;63488;48.092;-1.640;2023-08-21T08:13:28;2.53;;;0.85;;
74926;SDS011;63488;48.092;-1.640;2023-08-21T08:15:54;4.03;;;0.95;;
74926;SDS011;63488;48.092;-1.640;2023-08-21T08:18:19;5.30;;;1.30;;
74926;SDS011;63488;48.092;-1.640;2023-08-21T08:20:44;5.00;;;1.08;;
74926;SDS011;63488;48.092;-1.640;2023-08-21T08:23:10;8.10;;;1.00;;
74926;SDS011;63488;48.092;-1.640;2023-08-21T08:25:35;4.00;;;1.15;;
74926;SDS011;63488;48.092;-1.640;2023-08-21T08:28:02;6.47;;;1.23;;
74926;SDS011;63488;48.092;-1.640;2023-08-21T08:30:29;2.90;;;1.17;;
74926;SDS011;63488;48.092;-1.640;2023-08-21T08:32:56;6.70;;;1.52;;
74926;SDS011;63488;48.092;-1.640;2023-08-21T08:35:22;5.88;;;1.17;;
74926;SDS011;63488;48.092;-1.640;2023-08-21T08:37:47;5.05;;;1.15;;
74926;SDS011;63488;48.092;-1.640;2023-08-21T08:40:12;5.05;;;0.90;;
74926;SDS011;63488;48.092;-1.640;2023-08-21T08:42:38;4.90;;;1.00;;
74926;SDS011;63488;48.092;-1.640;2023-08-21T08:45:08;3.22;;;1.02;;
74926;SDS011;63488;48.092;-1.640;2023-08-21T08:47:50;4.32;;;1.08;;
74926;SDS011;63488;48.092;-1.640;2023-08-21T08:50:16;3.45;;;1.10;;
74926;SDS011;63488;48.092;-1.640;2023-08-21T08:52:44;5.85;;;1.08;;
74926;SDS011;63488;48.092;-1.640;2023-08-21T08:55:10;4.97;;;1.20;;
74926;SDS011;63488;48.092;-1.640;2023-08-21T08:57:36;5.22;;;1.20;;
74926;SDS011;63488;48.092;-1.640;2023-08-21T09:00:05;4.70;;;1.20;;
74926;SDS011;63488;48.092;-1.640;2023-08-21T09:02:31;4.23;;;1.20;;
74926;SDS011;63488;48.092;-1.640;2023-08-21T09:04:56;6.32;;;1.30;;
74926;SDS011;63488;48.092;-1.640;2023-08-21T09:07:22;5.32;;;1.08;;
74926;SDS011;63488;48.092;-1.640;2023-08-21T09:09:48;3.40;;;0.90;;
74926;SDS011;63488;48.092;-1.640;2023-08-21T09:12:16;5.68;;;0.90;;
74926;SDS011;63488;48.092;-1.640;2023-08-21T09:14:42;6.82;;;1.33;;
74926;SDS011;63488;48.092;-1.640;2023-08-21T09:17:08;5.03;;;0.95;;
74926;SDS011;63488;48.092;-1.640;2023-08-21T09:19:33;6.57;;;1.05;;
74926;SDS011;63488;48.092;-1.640;2023-08-21T09:22:06;3.75;;;0.93;;
74926;SDS011;63488;48.092;-1.640;2023-08-21T09:25:06;6.65;;;1.30;;
74926;SDS011;63488;48.092;-1.640;2023-08-21T09:27:35;4.90;;;0.88;;
74926;SDS011;63488;48.092;-1.640;2023-08-21T09:30:10;6.38;;;1.00;;
74926;SDS011;63488;48.092;-1.640;2023-08-21T09:35:21;4.93;;;1.00;;
74926;SDS011;63488;48.092;-1.640;2023-08-21T09:37:47;6.57;;;1.15;;
74926;SDS011;63488;48.092;-1.640;2023-08-21T09:40:12;5.88;;;1.23;;
74926;SDS011;63488;48.092;-1.640;2023-08-21T09:42:39;4.32;;;1.48;;
74926;SDS011;63488;48.092;-1.640;2023-08-21T09:45:04;5.93;;;1.17;;
74926;SDS011;63488;48.092;-1.640;2023-08-21T09:47:30;4.47;;;1.00;;
74926;SDS011;63488;48.092;-1.640;2023-08-21T09:49:56;6.20;;;1.15;;
74926;SDS011;63488;48.092;-1.640;2023-08-21T09:52:21;5.13;;;1.48;;
74926;SDS011;63488;48.092;-1.640;2023-08-21T09:54:47;9.27;;;1.77;;
74926;SDS011;63488;48.092;-1.640;2023-08-21T09:57:13;3.97;;;1.33;;
74926;SDS011;63488;48.092;-1.640;2023-08-21T09:59:39;4.97;;;1.00;;
74926;SDS011;63488;48.092;-1.640;2023-08-21T10:02:06;4.20;;;0.85;;
74926;SDS011;63488;48.092;-1.640;2023-08-21T10:04:32;7.10;;;1.27;;
74926;SDS011;63488;48.092;-1.640;2023-08-21T10:06:57;5.80;;;1.20;;
74926;SDS011;63488;48.092;-1.640;2023-08-21T10:09:23;5.10;;;1.10;;
74926;SDS011;63488;48.092;-1.640;2023-08-21T10:11:49;4.47;;;1.10;;
74926;SDS011;63488;48.092;-1.640;2023-08-21T10:14:15;4.97;;;1.40;;
74926;SDS011;63488;48.092;-1.640;2023-08-21T10:16:40;4.75;;;1.20;;
74926;SDS011;63488;48.092;-1.640;2023-08-21T10:19:06;5.63;;;1.63;;
74926;SDS011;63488;48.092;-1.640;2023-08-21T10:21:35;5.78;;;1.40;;
74926;SDS011;63488;48.092;-1.640;2023-08-21T10:24:02;7.22;;;1.40;;
74926;SDS011;63488;48.092;-1.640;2023-08-21T10:26:27;5.63;;;1.20;;
74926;SDS011;63488;48.092;-1.640;2023-08-21T10:28:58;6.38;;;1.45;;
74926;SDS011;63488;48.092;-1.640;2023-08-21T10:31:37;3.15;;;0.82;;
74926;SDS011;63488;48.092;-1.640;2023-08-21T10:34:08;6.00;;;1.23;;
74926;SDS011;63488;48.092;-1.640;2023-08-21T10:38:58;5.20;;;1.17;;
74926;SDS011;63488;48.092;-1.640;2023-08-21T10:41:28;7.47;;;1.35;;
74926;SDS011;63488;48.092;-1.640;2023-08-21T10:43:54;5.03;;;1.25;;
74926;SDS011;63488;48.092;-1.640;2023-08-21T10:46:20;4.05;;;1.02;;
74926;SDS011;63488;48.092;-1.640;2023-08-21T10:48:45;3.85;;;1.05;;
74926;SDS011;63488;48.092;-1.640;2023-08-21T10:51:11;5.03;;;1.17;;
74926;SDS011;63488;48.092;-1.640;2023-08-21T10:53:38;5.13;;;0.90;;
74926;SDS011;63488;48.092;-1.640;2023-08-21T10:56:05;5.32;;;1.00;;
74926;SDS011;63488;48.092;-1.640;2023-08-21T10:58:49;5.43;;;1.10;;
74926;SDS011;63488;48.092;-1.640;2023-08-21T11:01:17;3.53;;;0.98;;
74926;SDS011;63488;48.092;-1.640;2023-08-21T11:03:46;2.90;;;1.13;;
74926;SDS011;63488;48.092;-1.640;2023-08-21T11:06:12;3.63;;;1.10;;
74926;SDS011;63488;48.092;-1.640;2023-08-21T11:08:37;6.28;;;1.30;;
74926;SDS011;63488;48.092;-1.640;2023-08-21T11:11:04;6.78;;;1.27;;
74926;SDS011;63488;48.092;-1.640;2023-08-21T11:13:29;7.50;;;1.40;;
74926;SDS011;63488;48.092;-1.640;2023-08-21T11:16:04;4.90;;;1.02;;
74926;SDS011;63488;48.092;-1.640;2023-08-21T11:18:33;5.22;;;0.90;;
74926;SDS011;63488;48.092;-1.640;2023-08-21T11:21:05;4.55;;;1.08;;
74926;SDS011;63488;48.092;-1.640;2023-08-21T11:23:34;5.38;;;1.02;;
74926;SDS011;63488;48.092;-1.640;2023-08-21T11:26:00;3.70;;;0.88;;
74926;SDS011;63488;48.092;-1.640;2023-08-21T11:28:25;4.38;;;0.80;;
74926;SDS011;63488;48.092;-1.640;2023-08-21T11:30:50;2.92;;;0.65;;
74926;SDS011;63488;48.092;-1.640;2023-08-21T11:33:16;3.80;;;1.08;;
74926;SDS011;63488;48.092;-1.640;2023-08-21T11:35:41;4.70;;;0.98;;
74926;SDS011;63488;48.092;-1.640;2023-08-21T11:38:14;5.22;;;0.98;;
74926;SDS011;63488;48.092;-1.640;2023-08-21T11:40:39;2.00;;;0.60;;
74926;SDS011;63488;48.092;-1.640;2023-08-21T11:43:05;4.20;;;0.90;;
74926;SDS011;63488;48.092;-1.640;2023-08-21T11:45:31;4.15;;;0.90;;
74926;SDS011;63488;48.092;-1.640;2023-08-21T11:47:56;4.07;;;0.98;;
74926;SDS011;63488;48.092;-1.640;2023-08-21T11:50:22;5.68;;;1.08;;
74926;SDS011;63488;48.092;-1.640;2023-08-21T11:52:50;5.30;;;1.25;;
74926;SDS011;63488;48.092;-1.640;2023-08-21T11:55:16;2.60;;;0.70;;
74926;SDS011;63488;48.092;-1.640;2023-08-21T11:57:46;3.55;;;0.80;;
74926;SDS011;63488;48.092;-1.640;2023-08-21T12:00:11;4.25;;;1.05;;
74926;SDS011;63488;48.092;-1.640;2023-08-21T12:02:37;3.35;;;0.93;;
74926;SDS011;63488;48.092;-1.640;2023-08-21T12:05:06;4.50;;;1.10;;
74926;SDS011;63488;48.092;-1.640;2023-08-21T12:07:32;4.50;;;0.90;;
74926;SDS011;63488;48.092;-1.640;2023-08-21T12:09:57;5.65;;;0.70;;
74926;SDS011;63488;48.092;-1.640;2023-08-21T12:12:23;5.18;;;0.90;;
74926;SDS011;63488;48.092;-1.640;2023-08-21T12:14:49;3.55;;;0.70;;
74926;SDS011;63488;48.092;-1.640;2023-08-21T12:17:14;4.13;;;1.10;;
74926;SDS011;63488;48.092;-1.640;2023-08-21T12:19:39;4.45;;;1.02;;
74926;SDS011;63488;48.092;-1.640;2023-08-21T12:22:06;6.45;;;1.38;;
74926;SDS011;63488;48.092;-1.640;2023-08-21T12:24:32;4.20;;;0.70;;
74926;SDS011;63488;48.092;-1.640;2023-08-21T12:26:57;3.15;;;0.55;;
74926;SDS011;63488;48.092;-1.640;2023-08-21T12:29:22;7.43;;;1.85;;
74926;SDS011;63488;48.092;-1.640;2023-08-21T12:31:48;3.17;;;0.70;;
74926;SDS011;63488;48.092;-1.640;2023-08-21T12:34:13;2.95;;;0.85;;
74926;SDS011;63488;48.092;-1.640;2023-08-21T12:36:38;2.83;;;0.80;;
74926;SDS011;63488;48.092;-1.640;2023-08-21T12:39:04;3.53;;;0.75;;
74926;SDS011;63488;48.092;-1.640;2023-08-21T12:41:31;7.72;;;1.00;;
74926;SDS011;63488;48.092;-1.640;2023-08-21T12:46:25;4.07;;;1.17;;
74926;SDS011;63488;48.092;-1.640;2023-08-21T12:48:52;3.35;;;0.60;;
74926;SDS011;63488;48.092;-1.640;2023-08-21T12:51:18;2.65;;;0.70;;
74926;SDS011;63488;48.092;-1.640;2023-08-21T12:53:43;4.90;;;2.10;;
74926;SDS011;63488;48.092;-1.640;2023-08-21T12:56:08;4.15;;;1.10;;
74926;SDS011;63488;48.092;-1.640;2023-08-21T12:58:34;3.28;;;0.90;;
74926;SDS011;63488;48.092;-1.640;2023-08-21T13:00:59;4.47;;;0.70;;
74926;SDS011;63488;48.092;-1.640;2023-08-21T13:03:24;4.00;;;0.70;;
74926;SDS011;63488;48.092;-1.640;2023-08-21T13:05:50;3.85;;;0.82;;
74926;SDS011;63488;48.092;-1.640;2023-08-21T13:08:16;3.78;;;0.65;;
74926;SDS011;63488;48.092;-1.640;2023-08-21T13:10:41;1.92;;;0.73;;
74926;SDS011;63488;48.092;-1.640;2023-08-21T13:13:06;3.80;;;0.77;;
74926;SDS011;63488;48.092;-1.640;2023-08-21T13:15:32;5.95;;;0.70;;
74926;SDS011;63488;48.092;-1.640;2023-08-21T13:17:57;1.50;;;0.60;;
74926;SDS011;63488;48.092;-1.640;2023-08-21T13:20:23;4.85;;;0.70;;
74926;SDS011;63488;48.092;-1.640;2023-08-21T13:22:49;1.85;;;0.60;;
74926;SDS011;63488;48.092;-1.640;2023-08-21T13:25:15;2.55;;;0.57;;
74926;SDS011;63488;48.092;-1.640;2023-08-21T13:27:40;4.03;;;0.95;;
74926;SDS011;63488;48.092;-1.640;2023-08-21T13:30:06;6.22;;;0.80;;
74926;SDS011;63488;48.092;-1.640;2023-08-21T13:32:32;3.03;;;0.60;;
74926;SDS011;63488;48.092;-1.640;2023-08-21T13:34:58;3.83;;;0.75;;
74926;SDS011;63488;48.092;-1.640;2023-08-21T13:37:23;3.17;;;0.73;;
74926;SDS011;63488;48.092;-1.640;2023-08-21T13:39:48;2.20;;;0.75;;
74926;SDS011;63488;48.092;-1.640;2023-08-21T13:42:14;3.47;;;0.60;;
74926;SDS011;63488;48.092;-1.640;2023-08-21T13:44:40;2.22;;;0.70;;
74926;SDS011;63488;48.092;-1.640;2023-08-21T13:47:05;3.13;;;0.70;;
74926;SDS011;63488;48.092;-1.640;2023-08-21T13:49:31;4.45;;;0.68;;
74926;SDS011;63488;48.092;-1.640;2023-08-21T13:51:57;2.92;;;0.88;;
74926;SDS011;63488;48.092;-1.640;2023-08-21T13:54:22;3.58;;;0.98;;
74926;SDS011;63488;48.092;-1.640;2023-08-21T13:56:47;2.40;;;0.40;;
74926;SDS011;63488;48.092;-1.640;2023-08-21T13:59:13;3.83;;;0.82;;
74926;SDS011;63488;48.092;-1.640;2023-08-21T14:01:38;4.00;;;0.80;;
74926;SDS011;63488;48.092;-1.640;2023-08-21T14:04:04;5.97;;;1.13;;
74926;SDS011;63488;48.092;-1.640;2023-08-21T14:06:29;2.05;;;0.70;;
74926;SDS011;63488;48.092;-1.640;2023-08-21T14:08:55;2.85;;;0.80;;
74926;SDS011;63488;48.092;-1.640;2023-08-21T14:11:25;2.35;;;0.70;;
74926;SDS011;63488;48.092;-1.640;2023-08-21T14:13:51;3.13;;;0.70;;
74926;SDS011;63488;48.092;-1.640;2023-08-21T14:16:16;4.95;;;0.70;;
74926;SDS011;63488;48.092;-1.640;2023-08-21T14:18:42;4.72;;;0.95;;
74926;SDS011;63488;48.092;-1.640;2023-08-21T14:21:07;3.20;;;0.70;;
74926;SDS011;63488;48.092;-1.640;2023-08-21T14:23:33;1.52;;;0.52;;
74926;SDS011;63488;48.092;-1.640;2023-08-21T14:25:59;2.63;;;0.60;;
74926;SDS011;63488;48.092;-1.640;2023-08-21T14:28:24;3.65;;;0.80;;
74926;SDS011;63488;48.092;-1.640;2023-08-21T14:30:49;4.53;;;0.95;;
74926;SDS011;63488;48.092;-1.640;2023-08-21T14:33:17;3.28;;;0.73;;
74926;SDS011;63488;48.092;-1.640;2023-08-21T14:35:44;4.07;;;0.70;;
74926;SDS011;63488;48.092;-1.640;2023-08-21T14:38:10;3.67;;;0.70;;